Confins, Brazil

6:11 PM BRST on January 20, 2017 (GMT -0200)
Tancredo Neves International | | Change Station

Elev 2713 ft 19.63 °S, 43.97 °W | Updated 11 minutes ago

Partly Cloudy
Partly Cloudy
82 °F
Feels Like 83 °F
N
12
Wind Variable Wind from East

Today
High -- | Low -- °F
--% Chance of Precip.
Yesterday
High -- | Low -- °F
Precip. -- in
Pressure 30.04 in
Visibility 6.2 miles
Clouds Few 4000 ft
Heat Index 83 °F
Dew Point 61 °F
Humidity 48%
Rainfall 0.00 in
Snow Depth Not available.
6:33 AM 7:40 PM
Last Quarter, 41% visible
METAR SBCF 202000Z 10010KT 9999 FEW040 28/16 Q1017
Pressure 30.04 in
Visibility 6.2 miles
Clouds Few 4000 ft
Heat Index 83 °F
Dew Point 61 °F
Humidity 48%
Rainfall 0.00 in
Snow Depth Not available.
6:33 AM 7:40 PM
Last Quarter, 41% visible
METAR SBCF 202000Z 10010KT 9999 FEW040 28/16 Q1017

Get Your Daily Forecast Email!

Thanks for signing up!

Be on the lookout for a verification email in your inbox.

You'll start receiving the daily forecast at 8 AM.

×

10-Day Weather Forecast

No radar image for this location.
×

Almanac

Astronomy

Jan. 20, 2017 Rise Set
Actual Time
Civil Twilight
Nautical Twilight
Astronomical Twilight
Moon
Length of Visible Light
Length of Day
Tomorrow will be .
, % of the Moon is Illuminated

Today's Extremes

Country Highs Country Lows

Community

WunderPhotos

Upload Photos

1,962,540 photos uploaded!

WunderBlog® & News

Nearby

Air Quality

  Air Quality AQ Index Pollutant
Not available.

Snow Depth

Station Depth Elevation

Earthquake Activity

City Distance Mag. Time & Date
Minimum magnitude displayed is 2.5.

Coastal Water Temperatures

Place Temperature

Stations

Nearby Weather Stations

Station Location Temp. Windchill Dew Point Humidity Wind Precip. Elev Updated Type